Time;durP1;ratioP1;P1;durP2;ratioP2;P2;SDS_P1;SDS_P2;PMS_P1;PMS_P2;Temp;Humidity;BMP_temperature;BMP_pressure;BME280_temperature;BME280_humidity;BME280_pressure;Samples;Min_cycle;Max_cycle;Signal;HPM_P1;HPM_P2
2021/10/08 00:01:17;;;;;;;18.5;12.2;;;;;;;4.55;100;99689.7;;;;
2021/10/08 00:11:15;;;;;;;18.7;12.4;;;;;;;4.42;100;99698.02;;;;
2021/10/08 00:21:13;;;;;;;19.5;11.8;;;;;;;4.32;100;99687.17;;;;
2021/10/08 00:31:12;;;;;;;16.4;11.5;;;;;;;4.22;100;99699.52;;;;
2021/10/08 00:41:13;;;;;;;30.5;12.7;;;;;;;4.08;100;99700.84;;;;
2021/10/08 00:51:11;;;;;;;22.9;12;;;;;;;3.98;100;99704.13;;;;
2021/10/08 01:01:07;;;;;;;22.7;11.8;;;;;;;3.82;100;99719;;;;
2021/10/08 01:11:05;;;;;;;19.7;12.5;;;;;;;3.71;100;99722.53;;;;
2021/10/08 01:21:03;;;;;;;20.5;13.8;;;;;;;3.64;100;99724.52;;;;
2021/10/08 01:31:02;;;;;;;17.7;12.4;;;;;;;3.61;100;99724.17;;;;
2021/10/08 01:41:00;;;;;;;19.7;12;;;;;;;3.53;100;99735.99;;;;
2021/10/08 01:50:58;;;;;;;15.8;11.6;;;;;;;3.43;100;99738.44;;;;
2021/10/08 02:00:57;;;;;;;16;11.7;;;;;;;3.34;100;99731.81;;;;
2021/10/08 02:20:53;;;;;;;13.6;10;;;;;;;3.19;100;99752.8;;;;
2021/10/08 02:30:51;;;;;;;19.5;11.9;;;;;;;2.99;100;99747.78;;;;
2021/10/08 02:40:49;;;;;;;17.4;10.9;;;;;;;2.88;100;99753.92;;;;
2021/10/08 02:50:48;;;;;;;13.3;10.7;;;;;;;2.85;100;99757.83;;;;
2021/10/08 03:00:46;;;;;;;19.5;11.1;;;;;;;2.82;100;99757.48;;;;
2021/10/08 03:10:44;;;;;;;16.8;12;;;;;;;2.77;100;99752.86;;;;
2021/10/08 03:20:42;;;;;;;18.9;10.6;;;;;;;2.71;100;99767.05;;;;
2021/10/08 03:30:40;;;;;;;18.9;10.9;;;;;;;2.68;100;99772.84;;;;
2021/10/08 03:40:40;;;;;;;16.7;10.8;;;;;;;2.61;100;99782.77;;;;
2021/10/08 03:50:37;;;;;;;14.6;9.4;;;;;;;2.49;100;99787.25;;;;
2021/10/08 04:00:35;;;;;;;19;12.8;;;;;;;2.36;100;99798.07;;;;
2021/10/08 04:10:33;;;;;;;20.2;11.5;;;;;;;2.27;100;99794.08;;;;
2021/10/08 04:20:31;;;;;;;19.7;10.9;;;;;;;2.18;100;99806.06;;;;
2021/10/08 04:30:29;;;;;;;12.9;9.6;;;;;;;2.05;100;99814.99;;;;
2021/10/08 04:40:27;;;;;;;19.5;9.2;;;;;;;1.9;100;99820.7;;;;
2021/10/08 04:50:26;;;;;;;14.7;10.1;;;;;;;1.83;100;99829.77;;;;
2021/10/08 05:00:24;;;;;;;17.7;10.1;;;;;;;1.84;100;99832.19;;;;
2021/10/08 05:10:22;;;;;;;16.1;11.6;;;;;;;1.91;100;99842.75;;;;
2021/10/08 05:20:20;;;;;;;20.3;12.1;;;;;;;1.99;100;99864.55;;;;
2021/10/08 05:30:18;;;;;;;17.8;11.4;;;;;;;2.1;100;99872.83;;;;
2021/10/08 05:40:16;;;;;;;20.6;11.8;;;;;;;2.15;100;99883.63;;;;
2021/10/08 05:50:14;;;;;;;18.3;13;;;;;;;2.26;100;99885.53;;;;
2021/10/08 06:00:13;;;;;;;25.3;14.2;;;;;;;2.5;100;99893.44;;;;
2021/10/08 06:10:11;;;;;;;24.1;14;;;;;;;2.81;100;99907.62;;;;
2021/10/08 06:20:09;;;;;;;19.6;15.6;;;;;;;2.97;100;99914.97;;;;
2021/10/08 06:30:08;;;;;;;31.8;14.1;;;;;;;3.24;100;99921.55;;;;
2021/10/08 06:40:06;;;;;;;23.3;15.6;;;;;;;3.43;100;99933.78;;;;
2021/10/08 06:50:04;;;;;;;30.1;15.7;;;;;;;3.68;100;99930.91;;;;
2021/10/08 07:00:03;;;;;;;24.3;12.7;;;;;;;4.2;100;99939.86;;;;
2021/10/08 07:10:01;;;;;;;15.4;13.8;;;;;;;4.37;100;99934.66;;;;
2021/10/08 07:20:00;;;;;;;19.9;14.7;;;;;;;4.76;100;99952.55;;;;
2021/10/08 07:30:00;;;;;;;18.7;13.3;;;;;;;5.12;100;99950.59;;;;
2021/10/08 07:40:00;;;;;;;24.9;16.3;;;;;;;5.45;100;99946.13;;;;
2021/10/08 07:49:55;;;;;;;27.8;16.5;;;;;;;5.81;100;99960.93;;;;
2021/10/08 07:59:53;;;;;;;23.1;15.5;;;;;;;6.2;100;99961.03;;;;
2021/10/08 08:09:52;;;;;;;18.8;15;;;;;;;6.37;100;99964.49;;;;
2021/10/08 08:19:51;;;;;;;27;15.1;;;;;;;6.4;100;99974.71;;;;
2021/10/08 08:29:49;;;;;;;24.4;13.8;;;;;;;6.82;100;99975.02;;;;
2021/10/08 08:39:48;;;;;;;18.9;13.8;;;;;;;6.97;100;99973.34;;;;
2021/10/08 08:49:47;;;;;;;16.3;11;;;;;;;6.94;100;99973.81;;;;
2021/10/08 08:59:45;;;;;;;26;14.1;;;;;;;7.54;100;99972.88;;;;
2021/10/08 09:09:44;;;;;;;26.1;12.7;;;;;;;7.66;100;99976.22;;;;
2021/10/08 09:19:43;;;;;;;18.7;13.2;;;;;;;7.84;100;99983.91;;;;
2021/10/08 09:29:42;;;;;;;18.9;12;;;;;;;8.21;100;99983.11;;;;
2021/10/08 09:39:41;;;;;;;29;12.5;;;;;;;8.61;100;99982.61;;;;
2021/10/08 09:49:39;;;;;;;27.2;12.1;;;;;;;8.69;100;99985.59;;;;
2021/10/08 09:59:38;;;;;;;13.2;11.5;;;;;;;8.79;100;99992.9;;;;
2021/10/08 10:09:37;;;;;;;18.3;10.3;;;;;;;9.15;100;99985.8;;;;
2021/10/08 10:19:36;;;;;;;20.1;8.1;;;;;;;9.55;100;99978.64;;;;
2021/10/08 10:29:35;;;;;;;20.2;10.5;;;;;;;9.94;100;99976.27;;;;
2021/10/08 10:39:34;;;;;;;13.3;8.9;;;;;;;10.23;100;99979.27;;;;
2021/10/08 11:19:47;;;;;;;16;10.3;;;;;;;11.19;100;99983.56;;;;
2021/10/08 11:29:30;;;;;;;16.1;10.5;;;;;;;11.11;100;99971.45;;;;
2021/10/08 11:39:30;;;;;;;21.2;10.4;;;;;;;11.14;100;99973.63;;;;
2021/10/08 11:59:28;;;;;;;18.6;9.1;;;;;;;11.84;100;99960.78;;;;
2021/10/08 12:09:27;;;;;;;18.7;9.1;;;;;;;12.05;100;99967.63;;;;
2021/10/08 12:19:27;;;;;;;14.3;8.1;;;;;;;11.99;96.06738;99961.48;;;;
2021/10/08 12:29:26;;;;;;;16.6;8.5;;;;;;;12.1;98.33984;99963.01;;;;
2021/10/08 12:39:25;;;;;;;13.6;9;;;;;;;12.22;95.06641;99959.13;;;;
2021/10/08 12:49:25;;;;;;;13.1;6.6;;;;;;;12.41;91.83984;99966.23;;;;
2021/10/08 12:59:24;;;;;;;11.6;8.5;;;;;;;12.48;90.20508;99965.89;;;;
2021/10/08 13:09:24;;;;;;;17.2;8.6;;;;;;;12.39;89.99707;99970.32;;;;
2021/10/08 13:19:37;;;;;;;15.8;7;;;;;;;12.39;92.14063;99970.32;;;;
2021/10/08 13:29:23;;;;;;;17.8;7.5;;;;;;;12.46;91.36426;99957.27;;;;
2021/10/08 13:39:22;;;;;;;24.7;7.5;;;;;;;12.64;90.19531;99951.11;;;;
2021/10/08 13:49:21;;;;;;;14.1;7.8;;;;;;;12.57;93.44141;99946.04;;;;
2021/10/08 13:59:21;;;;;;;11.6;5.7;;;;;;;12.48;92.20215;99949.66;;;;
2021/10/08 14:10:15;;;;;;;13.9;6.8;;;;;;;12.26;85.08008;99949.34;;;;
2021/10/08 14:19:20;;;;;;;9.9;5.6;;;;;;;12;89.49902;99952.29;;;;
2021/10/08 14:29:19;;;;;;;15.5;8.3;;;;;;;11.93;87.47754;99953.7;;;;
2021/10/08 14:39:19;;;;;;;19.4;5.6;;;;;;;11.69;84.85547;99952.77;;;;
2021/10/08 14:49:17;;;;;;;14.1;7;;;;;;;11.52;84.91406;99953.16;;;;
2021/10/08 14:59:17;;;;;;;12.4;6.2;;;;;;;11.13;78.88379;99963.91;;;;
2021/10/08 15:09:16;;;;;;;15.4;7.5;;;;;;;10.81;78.49902;99966.19;;;;
2021/10/08 15:19:15;;;;;;;16;6.4;;;;;;;10.34;79.48438;99961.2;;;;
2021/10/08 15:29:19;;;;;;;31.5;8;;;;;;;9.99;82.67383;99980.86;;;;
2021/10/08 15:39:19;;;;;;;17.1;7.1;;;;;;;9.71;82.13574;99997.52;;;;
2021/10/08 15:49:15;;;;;;;22.7;9.4;;;;;;;9.33;85.23145;99990.72;;;;
2021/10/08 15:59:18;;;;;;;29.3;7;;;;;;;9.04;82.88574;100011.8;;;;
2021/10/08 16:09:11;;;;;;;15.4;6.3;;;;;;;8.79;83.90527;100012.5;;;;
2021/10/08 16:19:14;;;;;;;24.6;7.9;;;;;;;8.53;87.29395;100024.2;;;;
2021/10/08 16:29:08;;;;;;;10.9;6.6;;;;;;;8.19;91.06934;100041.7;;;;
2021/10/08 16:39:07;;;;;;;15.8;6.8;;;;;;;7.96;92.69727;100038.2;;;;
2021/10/08 16:49:06;;;;;;;14.5;7.3;;;;;;;7.69;96.66309;100047.3;;;;
2021/10/08 16:59:05;;;;;;;18.3;9.1;;;;;;;7.42;98.90918;100048.1;;;;
2021/10/08 17:09:03;;;;;;;24.6;11.6;;;;;;;7.2;100;100054.6;;;;
2021/10/08 17:19:02;;;;;;;19.5;10.6;;;;;;;6.99;100;100051.6;;;;
2021/10/08 17:29:09;;;;;;;23.1;11.2;;;;;;;6.76;100;100057.2;;;;
2021/10/08 17:38:59;;;;;;;16;13.6;;;;;;;6.44;100;100064.2;;;;
2021/10/08 17:48:58;;;;;;;18.3;10.9;;;;;;;6.24;100;100062;;;;
2021/10/08 17:58:59;;;;;;;26.5;13.7;;;;;;;6.04;100;100065.2;;;;
2021/10/08 18:08:55;;;;;;;17.3;13.6;;;;;;;5.93;100;100075.9;;;;
2021/10/08 18:18:54;;;;;;;25;14.8;;;;;;;5.83;100;100081.1;;;;
2021/10/08 18:28:58;;;;;;;16.8;11.7;;;;;;;5.54;100;100086.4;;;;
2021/10/08 18:38:51;;;;;;;18.9;12;;;;;;;5.42;100;100091;;;;
2021/10/08 18:48:49;;;;;;;18.9;14.5;;;;;;;5.39;100;100094.1;;;;
2021/10/08 18:58:49;;;;;;;22.9;16.9;;;;;;;5.33;100;100095.1;;;;
2021/10/08 19:08:47;;;;;;;34.8;19.6;;;;;;;5.22;100;100092.4;;;;
2021/10/08 19:18:54;;;;;;;23.1;17;;;;;;;5.13;100;100092;;;;
2021/10/08 19:28:43;;;;;;;29.5;21.9;;;;;;;5.03;100;100095.2;;;;
2021/10/08 19:38:41;;;;;;;19.8;15.8;;;;;;;4.88;100;100092.3;;;;
2021/10/08 19:48:40;;;;;;;16.5;13.1;;;;;;;4.63;100;100098.9;;;;
2021/10/08 19:58:38;;;;;;;17.6;13.2;;;;;;;4.53;100;100089.6;;;;
2021/10/08 20:18:35;;;;;;;15.9;11.2;;;;;;;4.56;100;100101.6;;;;
2021/10/08 20:28:34;;;;;;;14.6;10.1;;;;;;;4.44;100;100104.3;;;;
2021/10/08 20:38:31;;;;;;;14.5;11.2;;;;;;;4.36;100;100104.7;;;;
2021/10/08 20:48:30;;;;;;;22.9;11;;;;;;;4.27;100;100108.7;;;;
2021/10/08 20:58:28;;;;;;;13.3;10.4;;;;;;;4.31;100;100101;;;;
2021/10/08 21:08:27;;;;;;;16.1;10.9;;;;;;;4.18;100;100104.7;;;;
2021/10/08 21:18:25;;;;;;;18.4;10.4;;;;;;;4.08;100;100114.3;;;;
2021/10/08 21:28:23;;;;;;;15.1;10.5;;;;;;;3.95;100;100118;;;;
2021/10/08 21:38:27;;;;;;;14.6;10.2;;;;;;;3.79;100;100111.4;;;;
2021/10/08 21:48:20;;;;;;;20.3;9.9;;;;;;;3.73;100;100099;;;;
2021/10/08 21:58:18;;;;;;;11.1;9.5;;;;;;;3.77;100;100094;;;;
2021/10/08 22:08:16;;;;;;;15.2;10.7;;;;;;;3.73;100;100091;;;;
2021/10/08 22:18:16;;;;;;;15.8;10.6;;;;;;;3.63;100;100090.8;;;;
2021/10/08 22:28:26;;;;;;;13;11.6;;;;;;;3.49;100;100086.6;;;;
2021/10/08 22:38:11;;;;;;;15.7;11.2;;;;;;;3.39;100;100084.5;;;;
2021/10/08 22:48:09;;;;;;;15.5;10.3;;;;;;;3.28;100;100084.4;;;;
2021/10/08 22:58:07;;;;;;;18.9;10.5;;;;;;;3.15;100;100081.9;;;;
2021/10/08 23:08:12;;;;;;;18.5;11.2;;;;;;;3.07;100;100084.9;;;;
2021/10/08 23:18:04;;;;;;;20.4;12;;;;;;;2.97;100;100086.2;;;;
2021/10/08 23:28:02;;;;;;;20.6;11.7;;;;;;;2.85;100;100081.8;;;;
2021/10/08 23:38:00;;;;;;;16.7;10.8;;;;;;;2.71;100;100072.4;;;;
2021/10/08 23:47:59;;;;;;;13.3;11.1;;;;;;;2.59;100;100074.9;;;;
2021/10/08 23:57:57;;;;;;;14.5;9;;;;;;;2.5;100;100078.9;;;;
